sensor_id;sensor_type;location;lat;lon;timestamp;pressure;altitude;pressure_sealevel;temperature;humidity
17209;BME280;8720;48.488;9.202;2023-05-07T00:01:08;96899.50;;;20.11;50.06
17209;BME280;8720;48.488;9.202;2023-05-07T00:03:35;96901.50;;;20.07;50.57
17209;BME280;8720;48.488;9.202;2023-05-07T00:06:04;96883.56;;;19.97;50.39
17209;BME280;8720;48.488;9.202;2023-05-07T00:08:31;96897.50;;;20.00;50.60
17209;BME280;8720;48.488;9.202;2023-05-07T00:10:58;96897.81;;;19.96;50.73
17209;BME280;8720;48.488;9.202;2023-05-07T00:13:26;96891.91;;;19.90;50.29
17209;BME280;8720;48.488;9.202;2023-05-07T00:15:54;96890.22;;;19.89;50.69
17209;BME280;8720;48.488;9.202;2023-05-07T00:18:21;96881.50;;;19.87;50.60
17209;BME280;8720;48.488;9.202;2023-05-07T00:20:49;96881.69;;;19.84;50.79
17209;BME280;8720;48.488;9.202;2023-05-07T00:23:16;96881.88;;;19.81;50.70
17209;BME280;8720;48.488;9.202;2023-05-07T00:25:43;96881.13;;;19.79;50.92
17209;BME280;8720;48.488;9.202;2023-05-07T00:28:10;96880.47;;;19.76;50.92
17209;BME280;8720;48.488;9.202;2023-05-07T00:30:38;96877.16;;;19.72;50.78
17209;BME280;8720;48.488;9.202;2023-05-07T00:33:06;96875.63;;;19.68;51.15
17209;BME280;8720;48.488;9.202;2023-05-07T00:35:34;96880.28;;;19.65;50.89
17209;BME280;8720;48.488;9.202;2023-05-07T00:38:01;96888.31;;;19.63;51.14
17209;BME280;8720;48.488;9.202;2023-05-07T00:40:28;96887.66;;;19.60;51.35
17209;BME280;8720;48.488;9.202;2023-05-07T00:42:56;96885.22;;;19.57;51.50
17209;BME280;8720;48.488;9.202;2023-05-07T00:45:27;96886.25;;;19.54;51.18
17209;BME280;8720;48.488;9.202;2023-05-07T00:47:55;96867.78;;;19.53;51.66
17209;BME280;8720;48.488;9.202;2023-05-07T00:50:25;96870.78;;;19.47;51.77
17209;BME280;8720;48.488;9.202;2023-05-07T00:52:52;96870.78;;;19.47;51.36
17209;BME280;8720;48.488;9.202;2023-05-07T00:55:21;96863.00;;;19.44;51.32
17209;BME280;8720;48.488;9.202;2023-05-07T00:57:50;96867.66;;;19.40;51.57
17209;BME280;8720;48.488;9.202;2023-05-07T01:00:18;96873.91;;;19.39;51.67
17209;BME280;8720;48.488;9.202;2023-05-07T01:02:46;96864.44;;;19.35;51.68
17209;BME280;8720;48.488;9.202;2023-05-07T01:05:17;96864.53;;;19.34;51.69
17209;BME280;8720;48.488;9.202;2023-05-07T01:07:47;96871.81;;;19.30;52.09
17209;BME280;8720;48.488;9.202;2023-05-07T01:10:17;96868.41;;;19.28;51.95
17209;BME280;8720;48.488;9.202;2023-05-07T01:12:45;96867.63;;;19.26;51.92
17209;BME280;8720;48.488;9.202;2023-05-07T01:15:14;96871.69;;;19.18;52.19
17209;BME280;8720;48.488;9.202;2023-05-07T01:17:42;96876.72;;;19.22;51.65
17209;BME280;8720;48.488;9.202;2023-05-07T01:20:20;96876.88;;;19.19;51.95
17209;BME280;8720;48.488;9.202;2023-05-07T01:22:54;96873.47;;;19.17;51.86
17209;BME280;8720;48.488;9.202;2023-05-07T01:25:22;96863.22;;;19.11;51.96
17209;BME280;8720;48.488;9.202;2023-05-07T01:27:53;96862.09;;;19.15;52.12
17209;BME280;8720;48.488;9.202;2023-05-07T01:30:25;96868.38;;;19.14;51.78
17209;BME280;8720;48.488;9.202;2023-05-07T01:33:00;96866.63;;;19.13;52.13
17209;BME280;8720;48.488;9.202;2023-05-07T01:35:34;96873.94;;;19.10;52.24
17209;BME280;8720;48.488;9.202;2023-05-07T01:38:05;96874.22;;;19.05;52.38
17209;BME280;8720;48.488;9.202;2023-05-07T01:40:33;96869.09;;;19.02;52.52
17209;BME280;8720;48.488;9.202;2023-05-07T01:43:02;96865.09;;;18.95;52.44
17209;BME280;8720;48.488;9.202;2023-05-07T01:45:31;96860.94;;;18.91;52.49
17209;BME280;8720;48.488;9.202;2023-05-07T01:48:01;96870.56;;;18.92;52.51
17209;BME280;8720;48.488;9.202;2023-05-07T01:50:29;96871.69;;;18.88;52.36
17209;BME280;8720;48.488;9.202;2023-05-07T01:52:57;96870.94;;;18.86;52.69
17209;BME280;8720;48.488;9.202;2023-05-07T01:55:26;96865.06;;;18.81;52.71
17209;BME280;8720;48.488;9.202;2023-05-07T01:57:54;96869.59;;;18.79;52.52
17209;BME280;8720;48.488;9.202;2023-05-07T02:03:04;96868.41;;;18.69;52.93
17209;BME280;8720;48.488;9.202;2023-05-07T02:05:40;96862.56;;;18.64;52.77
17209;BME280;8720;48.488;9.202;2023-05-07T02:08:15;96858.47;;;18.58;53.05
17209;BME280;8720;48.488;9.202;2023-05-07T02:10:43;96859.69;;;18.53;53.23
17209;BME280;8720;48.488;9.202;2023-05-07T02:13:10;96854.63;;;18.48;53.29
17209;BME280;8720;48.488;9.202;2023-05-07T02:15:38;96863.78;;;18.43;53.02
17209;BME280;8720;48.488;9.202;2023-05-07T02:18:08;96863.16;;;18.38;53.36
17209;BME280;8720;48.488;9.202;2023-05-07T02:20:35;96865.13;;;18.34;53.42
17209;BME280;8720;48.488;9.202;2023-05-07T02:23:03;96860.03;;;18.31;53.39
17209;BME280;8720;48.488;9.202;2023-05-07T02:25:30;96867.28;;;18.28;53.37
17209;BME280;8720;48.488;9.202;2023-05-07T02:27:59;96863.25;;;18.21;53.52
17209;BME280;8720;48.488;9.202;2023-05-07T02:30:47;96864.47;;;18.15;53.32
17209;BME280;8720;48.488;9.202;2023-05-07T02:33:15;96866.44;;;18.11;53.62
17209;BME280;8720;48.488;9.202;2023-05-07T02:35:42;96862.25;;;18.07;53.80
17209;BME280;8720;48.488;9.202;2023-05-07T02:38:12;96875.56;;;18.06;53.73
17209;BME280;8720;48.488;9.202;2023-05-07T02:40:40;96869.59;;;18.02;53.77
17209;BME280;8720;48.488;9.202;2023-05-07T02:43:09;96874.22;;;17.99;54.02
17209;BME280;8720;48.488;9.202;2023-05-07T02:45:37;96878.75;;;17.97;53.88
17209;BME280;8720;48.488;9.202;2023-05-07T02:48:06;96878.31;;;17.89;53.98
17209;BME280;8720;48.488;9.202;2023-05-07T02:50:33;96879.16;;;17.89;53.76
17209;BME280;8720;48.488;9.202;2023-05-07T02:53:01;96882.06;;;17.85;53.94
17209;BME280;8720;48.488;9.202;2023-05-07T02:55:28;96876.91;;;17.82;53.89
17209;BME280;8720;48.488;9.202;2023-05-07T02:57:56;96868.28;;;17.78;54.01
17209;BME280;8720;48.488;9.202;2023-05-07T03:00:25;96869.34;;;17.76;54.19
17209;BME280;8720;48.488;9.202;2023-05-07T03:03:07;96877.53;;;17.71;54.06
17209;BME280;8720;48.488;9.202;2023-05-07T03:05:35;96882.13;;;17.68;54.32
17209;BME280;8720;48.488;9.202;2023-05-07T03:08:02;96888.50;;;17.64;54.23
17209;BME280;8720;48.488;9.202;2023-05-07T03:10:30;96886.97;;;17.60;54.30
17209;BME280;8720;48.488;9.202;2023-05-07T03:12:57;96886.38;;;17.55;54.39
17209;BME280;8720;48.488;9.202;2023-05-07T03:15:26;96876.91;;;17.51;54.58
17209;BME280;8720;48.488;9.202;2023-05-07T03:17:53;96886.91;;;17.44;54.78
17209;BME280;8720;48.488;9.202;2023-05-07T03:20:20;96886.13;;;17.42;54.47
17209;BME280;8720;48.488;9.202;2023-05-07T03:22:48;96883.66;;;17.39;54.44
17209;BME280;8720;48.488;9.202;2023-05-07T03:25:15;96884.66;;;17.37;54.69
17209;BME280;8720;48.488;9.202;2023-05-07T03:27:42;96872.53;;;17.33;54.68
17209;BME280;8720;48.488;9.202;2023-05-07T03:30:12;96871.00;;;17.28;54.52
17209;BME280;8720;48.488;9.202;2023-05-07T03:32:40;96864.16;;;17.24;54.63
17209;BME280;8720;48.488;9.202;2023-05-07T03:35:11;96861.75;;;17.20;54.52
17209;BME280;8720;48.488;9.202;2023-05-07T03:37:38;96865.50;;;17.16;54.85
17209;BME280;8720;48.488;9.202;2023-05-07T03:40:08;96860.22;;;17.16;54.77
17209;BME280;8720;48.488;9.202;2023-05-07T03:42:43;96863.88;;;17.13;54.63
17209;BME280;8720;48.488;9.202;2023-05-07T03:45:11;96861.31;;;17.12;54.91
17209;BME280;8720;48.488;9.202;2023-05-07T03:47:44;96858.81;;;17.09;55.02
17209;BME280;8720;48.488;9.202;2023-05-07T03:50:16;96858.13;;;17.05;55.07
17209;BME280;8720;48.488;9.202;2023-05-07T03:52:43;96859.84;;;17.06;55.18
17209;BME280;8720;48.488;9.202;2023-05-07T03:55:14;96865.19;;;17.05;55.28
17209;BME280;8720;48.488;9.202;2023-05-07T03:57:48;96877.56;;;17.04;55.14
17209;BME280;8720;48.488;9.202;2023-05-07T04:00:16;96874.97;;;17.03;55.36
17209;BME280;8720;48.488;9.202;2023-05-07T04:02:47;96878.56;;;17.02;55.39
17209;BME280;8720;48.488;9.202;2023-05-07T04:05:21;96874.28;;;16.99;55.15
17209;BME280;8720;48.488;9.202;2023-05-07T04:07:51;96880.44;;;17.00;55.51
17209;BME280;8720;48.488;9.202;2023-05-07T04:10:24;96883.16;;;16.98;55.43
17209;BME280;8720;48.488;9.202;2023-05-07T04:12:55;96890.16;;;16.99;55.24
17209;BME280;8720;48.488;9.202;2023-05-07T04:15:23;96885.72;;;17.00;55.33
17209;BME280;8720;48.488;9.202;2023-05-07T04:17:52;96888.38;;;17.00;55.27
17209;BME280;8720;48.488;9.202;2023-05-07T04:20:21;96891.00;;;17.00;55.52
17209;BME280;8720;48.488;9.202;2023-05-07T04:22:55;96882.22;;;16.99;55.51
17209;BME280;8720;48.488;9.202;2023-05-07T04:25:23;96876.06;;;16.99;55.50
17209;BME280;8720;48.488;9.202;2023-05-07T04:27:57;96881.31;;;17.00;55.35
17209;BME280;8720;48.488;9.202;2023-05-07T04:30:26;96876.69;;;17.04;55.44
17209;BME280;8720;48.488;9.202;2023-05-07T04:32:55;96879.88;;;17.10;55.86
17209;BME280;8720;48.488;9.202;2023-05-07T04:35:25;96878.06;;;17.28;56.23
17209;BME280;8720;48.488;9.202;2023-05-07T04:37:53;96886.88;;;17.61;56.36
17209;BME280;8720;48.488;9.202;2023-05-07T04:40:21;96883.59;;;18.04;56.57
17209;BME280;8720;48.488;9.202;2023-05-07T04:42:48;96883.53;;;18.53;56.39
17209;BME280;8720;48.488;9.202;2023-05-07T04:45:16;96879.69;;;19.02;55.66
17209;BME280;8720;48.488;9.202;2023-05-07T04:47:45;96875.44;;;19.43;55.08
17209;BME280;8720;48.488;9.202;2023-05-07T04:50:14;96880.38;;;19.77;54.71
17209;BME280;8720;48.488;9.202;2023-05-07T04:52:44;96881.78;;;19.97;53.98
17209;BME280;8720;48.488;9.202;2023-05-07T04:55:11;96885.25;;;20.12;53.51
17209;BME280;8720;48.488;9.202;2023-05-07T04:57:40;96886.19;;;20.25;52.77
17209;BME280;8720;48.488;9.202;2023-05-07T05:00:10;96894.53;;;20.33;52.33
17209;BME280;8720;48.488;9.202;2023-05-07T05:02:41;96889.47;;;20.42;52.39
17209;BME280;8720;48.488;9.202;2023-05-07T05:05:09;96900.16;;;20.55;51.51
17209;BME280;8720;48.488;9.202;2023-05-07T05:07:37;96910.34;;;20.75;51.64
17209;BME280;8720;48.488;9.202;2023-05-07T05:10:06;96911.78;;;20.93;51.26
17209;BME280;8720;48.488;9.202;2023-05-07T05:12:37;96919.50;;;21.10;51.03
17209;BME280;8720;48.488;9.202;2023-05-07T05:15:06;96918.63;;;21.36;50.66
17209;BME280;8720;48.488;9.202;2023-05-07T05:17:34;96929.94;;;21.65;50.50
17209;BME280;8720;48.488;9.202;2023-05-07T05:20:05;96926.75;;;21.98;49.93
17209;BME280;8720;48.488;9.202;2023-05-07T05:22:34;96932.34;;;22.31;49.22
17209;BME280;8720;48.488;9.202;2023-05-07T05:25:03;96938.44;;;22.69;49.45
17209;BME280;8720;48.488;9.202;2023-05-07T05:27:31;96931.00;;;23.09;48.60
17209;BME280;8720;48.488;9.202;2023-05-07T05:29:59;96926.28;;;23.47;47.62
17209;BME280;8720;48.488;9.202;2023-05-07T05:32:28;96935.31;;;23.68;47.59
17209;BME280;8720;48.488;9.202;2023-05-07T05:34:56;96934.38;;;23.69;47.11
17209;BME280;8720;48.488;9.202;2023-05-07T05:37:26;96936.16;;;23.58;46.96
17209;BME280;8720;48.488;9.202;2023-05-07T05:39:54;96931.28;;;23.40;46.57
17209;BME280;8720;48.488;9.202;2023-05-07T05:42:23;96936.63;;;23.28;47.07
17209;BME280;8720;48.488;9.202;2023-05-07T05:44:50;96929.56;;;23.39;46.78
17209;BME280;8720;48.488;9.202;2023-05-07T05:47:18;96926.69;;;23.65;46.62
17209;BME280;8720;48.488;9.202;2023-05-07T05:49:45;96925.06;;;23.97;46.45
17209;BME280;8720;48.488;9.202;2023-05-07T05:52:15;96924.84;;;24.22;46.07
17209;BME280;8720;48.488;9.202;2023-05-07T05:54:43;96921.66;;;24.39;45.44
17209;BME280;8720;48.488;9.202;2023-05-07T05:57:11;96935.59;;;24.65;45.61
17209;BME280;8720;48.488;9.202;2023-05-07T05:59:39;96928.41;;;24.87;45.53
17209;BME280;8720;48.488;9.202;2023-05-07T06:02:07;96941.84;;;25.08;44.60
17209;BME280;8720;48.488;9.202;2023-05-07T06:04:34;96946.84;;;25.33;44.61
17209;BME280;8720;48.488;9.202;2023-05-07T06:07:02;96936.91;;;25.56;44.43
17209;BME280;8720;48.488;9.202;2023-05-07T06:09:29;96930.69;;;25.76;43.97
17209;BME280;8720;48.488;9.202;2023-05-07T06:11:57;96935.31;;;25.94;43.68
17209;BME280;8720;48.488;9.202;2023-05-07T06:14:24;96929.84;;;26.17;43.32
17209;BME280;8720;48.488;9.202;2023-05-07T06:16:53;96937.28;;;26.43;43.47
17209;BME280;8720;48.488;9.202;2023-05-07T06:19:20;96931.69;;;26.65;42.89
17209;BME280;8720;48.488;9.202;2023-05-07T06:21:50;96937.72;;;26.78;42.09
17209;BME280;8720;48.488;9.202;2023-05-07T06:24:17;96936.72;;;26.89;41.91
17209;BME280;8720;48.488;9.202;2023-05-07T06:26:45;96943.66;;;26.91;42.01
17209;BME280;8720;48.488;9.202;2023-05-07T06:29:13;96948.75;;;26.94;41.58
17209;BME280;8720;48.488;9.202;2023-05-07T06:31:42;96938.56;;;27.08;42.04
17209;BME280;8720;48.488;9.202;2023-05-07T06:34:12;96945.16;;;27.34;41.66
17209;BME280;8720;48.488;9.202;2023-05-07T06:36:41;96939.91;;;27.51;40.98
17209;BME280;8720;48.488;9.202;2023-05-07T06:39:17;96946.81;;;27.54;41.02
17209;BME280;8720;48.488;9.202;2023-05-07T06:41:44;96945.69;;;27.56;40.82
17209;BME280;8720;48.488;9.202;2023-05-07T06:44:21;96946.97;;;27.62;40.80
17209;BME280;8720;48.488;9.202;2023-05-07T06:46:58;96939.03;;;27.70;40.76
17209;BME280;8720;48.488;9.202;2023-05-07T06:49:28;96941.56;;;27.71;40.02
17209;BME280;8720;48.488;9.202;2023-05-07T06:51:55;96946.81;;;27.73;39.69
17209;BME280;8720;48.488;9.202;2023-05-07T06:54:22;96946.69;;;27.74;39.96
17209;BME280;8720;48.488;9.202;2023-05-07T06:56:50;96950.78;;;27.78;36.85
17209;BME280;8720;48.488;9.202;2023-05-07T06:59:17;96944.13;;;27.63;38.20
17209;BME280;8720;48.488;9.202;2023-05-07T07:01:45;96947.53;;;27.46;38.99
17209;BME280;8720;48.488;9.202;2023-05-07T07:04:12;96944.13;;;27.35;38.67
17209;BME280;8720;48.488;9.202;2023-05-07T07:06:43;96948.22;;;27.29;38.64
17209;BME280;8720;48.488;9.202;2023-05-07T07:09:13;96947.84;;;27.34;39.35
17209;BME280;8720;48.488;9.202;2023-05-07T07:11:41;96941.03;;;27.49;38.89
17209;BME280;8720;48.488;9.202;2023-05-07T07:14:08;96941.84;;;27.88;38.93
17209;BME280;8720;48.488;9.202;2023-05-07T07:16:44;96937.03;;;28.37;38.45
17209;BME280;8720;48.488;9.202;2023-05-07T07:19:13;96934.00;;;28.87;37.78
17209;BME280;8720;48.488;9.202;2023-05-07T07:21:44;96929.88;;;29.45;37.40
17209;BME280;8720;48.488;9.202;2023-05-07T07:24:13;96932.88;;;29.95;36.48
17209;BME280;8720;48.488;9.202;2023-05-07T07:26:45;96932.59;;;30.31;36.08
17209;BME280;8720;48.488;9.202;2023-05-07T07:29:16;96932.94;;;30.70;35.81
17209;BME280;8720;48.488;9.202;2023-05-07T07:31:45;96928.06;;;31.15;35.37
17209;BME280;8720;48.488;9.202;2023-05-07T07:34:12;96931.72;;;31.64;34.47
17209;BME280;8720;48.488;9.202;2023-05-07T07:36:40;96930.03;;;32.03;33.98
17209;BME280;8720;48.488;9.202;2023-05-07T07:39:10;96929.97;;;32.36;33.76
17209;BME280;8720;48.488;9.202;2023-05-07T07:41:37;96926.50;;;32.66;33.35
17209;BME280;8720;48.488;9.202;2023-05-07T07:44:04;96928.56;;;32.94;32.81
17209;BME280;8720;48.488;9.202;2023-05-07T07:46:35;96929.69;;;33.16;32.10
17209;BME280;8720;48.488;9.202;2023-05-07T07:49:03;96938.06;;;33.29;32.21
17209;BME280;8720;48.488;9.202;2023-05-07T07:51:32;96934.03;;;33.25;31.71
17209;BME280;8720;48.488;9.202;2023-05-07T07:54:00;96940.75;;;33.07;32.36
17209;BME280;8720;48.488;9.202;2023-05-07T07:56:32;96935.78;;;32.79;32.03
17209;BME280;8720;48.488;9.202;2023-05-07T07:59:01;96937.09;;;32.45;32.36
17209;BME280;8720;48.488;9.202;2023-05-07T08:01:32;96942.19;;;32.07;32.63
17209;BME280;8720;48.488;9.202;2023-05-07T08:04:00;96939.97;;;31.63;32.64
17209;BME280;8720;48.488;9.202;2023-05-07T08:06:30;96942.59;;;31.14;32.84
17209;BME280;8720;48.488;9.202;2023-05-07T08:08:58;96944.31;;;30.74;33.50
17209;BME280;8720;48.488;9.202;2023-05-07T08:11:25;96941.78;;;30.38;33.54
17209;BME280;8720;48.488;9.202;2023-05-07T08:13:56;96943.69;;;30.03;33.85
17209;BME280;8720;48.488;9.202;2023-05-07T08:16:24;96939.19;;;29.68;34.26
17209;BME280;8720;48.488;9.202;2023-05-07T08:18:52;96944.13;;;29.37;35.00
17209;BME280;8720;48.488;9.202;2023-05-07T08:21:20;96942.78;;;29.06;35.18
17209;BME280;8720;48.488;9.202;2023-05-07T08:23:47;96944.94;;;28.76;35.77
17209;BME280;8720;48.488;9.202;2023-05-07T08:26:14;96942.91;;;28.50;35.94
17209;BME280;8720;48.488;9.202;2023-05-07T08:28:42;96936.91;;;28.29;36.29
17209;BME280;8720;48.488;9.202;2023-05-07T08:31:11;96942.53;;;28.09;36.26
17209;BME280;8720;48.488;9.202;2023-05-07T08:33:41;96939.16;;;27.88;37.18
17209;BME280;8720;48.488;9.202;2023-05-07T08:36:08;96944.41;;;27.70;37.20
17209;BME280;8720;48.488;9.202;2023-05-07T08:38:35;96949.25;;;27.57;37.75
17209;BME280;8720;48.488;9.202;2023-05-07T08:41:03;96937.22;;;27.42;37.64
17209;BME280;8720;48.488;9.202;2023-05-07T08:43:33;96939.91;;;27.32;37.87
17209;BME280;8720;48.488;9.202;2023-05-07T08:46:04;96946.09;;;27.23;38.39
17209;BME280;8720;48.488;9.202;2023-05-07T08:48:37;96944.66;;;27.10;38.23
17209;BME280;8720;48.488;9.202;2023-05-07T08:51:13;96942.41;;;26.95;38.44
17209;BME280;8720;48.488;9.202;2023-05-07T08:53:41;96948.56;;;26.86;38.59
17209;BME280;8720;48.488;9.202;2023-05-07T08:56:12;96934.09;;;26.68;38.75
17209;BME280;8720;48.488;9.202;2023-05-07T08:58:41;96947.41;;;26.70;39.71
17209;BME280;8720;48.488;9.202;2023-05-07T09:01:13;96944.72;;;26.70;39.62
17209;BME280;8720;48.488;9.202;2023-05-07T09:03:46;96947.72;;;26.76;40.12
17209;BME280;8720;48.488;9.202;2023-05-07T09:06:15;96943.22;;;26.86;40.23
17209;BME280;8720;48.488;9.202;2023-05-07T09:08:50;96947.47;;;26.98;40.50
17209;BME280;8720;48.488;9.202;2023-05-07T09:11:20;96938.56;;;27.08;40.65
17209;BME280;8720;48.488;9.202;2023-05-07T09:13:53;96932.25;;;27.18;40.12
17209;BME280;8720;48.488;9.202;2023-05-07T09:16:21;96940.16;;;27.29;40.19
17209;BME280;8720;48.488;9.202;2023-05-07T09:18:53;96936.63;;;27.38;40.38
17209;BME280;8720;48.488;9.202;2023-05-07T09:21:22;96940.06;;;27.50;39.72
17209;BME280;8720;48.488;9.202;2023-05-07T09:23:53;96933.38;;;27.63;39.93
17209;BME280;8720;48.488;9.202;2023-05-07T09:26:24;96931.94;;;27.78;39.31
17209;BME280;8720;48.488;9.202;2023-05-07T09:28:52;96922.84;;;27.89;39.50
17209;BME280;8720;48.488;9.202;2023-05-07T09:31:21;96920.72;;;28.02;39.43
17209;BME280;8720;48.488;9.202;2023-05-07T09:33:52;96921.28;;;28.15;39.24
17209;BME280;8720;48.488;9.202;2023-05-07T09:36:23;96920.53;;;28.23;39.27
17209;BME280;8720;48.488;9.202;2023-05-07T09:38:50;96917.38;;;28.27;39.15
17209;BME280;8720;48.488;9.202;2023-05-07T09:41:19;96905.78;;;28.27;39.08
17209;BME280;8720;48.488;9.202;2023-05-07T09:44:00;96913.66;;;28.38;39.05
17209;BME280;8720;48.488;9.202;2023-05-07T09:46:38;96908.81;;;28.41;39.22
17209;BME280;8720;48.488;9.202;2023-05-07T09:49:22;96902.84;;;28.47;39.00
17209;BME280;8720;48.488;9.202;2023-05-07T09:52:00;96906.25;;;28.49;38.53
17209;BME280;8720;48.488;9.202;2023-05-07T09:54:29;96895.47;;;28.49;38.52
17209;BME280;8720;48.488;9.202;2023-05-07T09:57:02;96891.75;;;28.50;38.35
17209;BME280;8720;48.488;9.202;2023-05-07T09:59:32;96894.34;;;28.52;38.71
17209;BME280;8720;48.488;9.202;2023-05-07T10:02:04;96901.97;;;28.56;38.35
17209;BME280;8720;48.488;9.202;2023-05-07T10:04:39;96897.28;;;28.58;38.07
17209;BME280;8720;48.488;9.202;2023-05-07T10:07:08;96894.16;;;28.63;38.11
17209;BME280;8720;48.488;9.202;2023-05-07T10:09:37;96894.00;;;28.64;38.08
17209;BME280;8720;48.488;9.202;2023-05-07T10:12:13;96892.00;;;28.66;38.07
17209;BME280;8720;48.488;9.202;2023-05-07T10:14:42;96882.47;;;28.72;37.40
17209;BME280;8720;48.488;9.202;2023-05-07T10:17:11;96883.31;;;28.73;37.09
17209;BME280;8720;48.488;9.202;2023-05-07T10:19:44;96875.94;;;28.75;37.30
17209;BME280;8720;48.488;9.202;2023-05-07T10:22:14;96870.06;;;28.79;37.35
17209;BME280;8720;48.488;9.202;2023-05-07T10:24:48;96867.09;;;28.82;37.32
17209;BME280;8720;48.488;9.202;2023-05-07T10:27:18;96871.34;;;28.85;37.19
17209;BME280;8720;48.488;9.202;2023-05-07T10:30:03;96870.72;;;28.91;36.85
17209;BME280;8720;48.488;9.202;2023-05-07T10:32:42;96856.34;;;29.00;36.74
17209;BME280;8720;48.488;9.202;2023-05-07T10:35:21;96861.66;;;29.09;36.61
17209;BME280;8720;48.488;9.202;2023-05-07T10:37:50;96860.22;;;29.15;36.00
17209;BME280;8720;48.488;9.202;2023-05-07T10:40:20;96849.50;;;29.23;35.98
17209;BME280;8720;48.488;9.202;2023-05-07T10:43:00;96853.25;;;29.30;36.05
17209;BME280;8720;48.488;9.202;2023-05-07T10:45:33;96858.34;;;29.33;36.21
17209;BME280;8720;48.488;9.202;2023-05-07T10:48:10;96860.88;;;29.34;35.95
17209;BME280;8720;48.488;9.202;2023-05-07T10:50:41;96847.56;;;29.33;35.79
17209;BME280;8720;48.488;9.202;2023-05-07T10:53:24;96853.66;;;29.35;36.23
17209;BME280;8720;48.488;9.202;2023-05-07T10:56:26;96836.88;;;29.23;36.19
17209;BME280;8720;48.488;9.202;2023-05-07T10:59:35;96846.13;;;29.21;35.90
17209;BME280;8720;48.488;9.202;2023-05-07T11:02:19;96855.50;;;29.17;35.52
17209;BME280;8720;48.488;9.202;2023-05-07T11:05:21;96855.41;;;29.09;35.63
17209;BME280;8720;48.488;9.202;2023-05-07T11:08:55;96843.84;;;28.99;36.28
17209;BME280;8720;48.488;9.202;2023-05-07T11:11:45;96848.94;;;29.02;35.91
17209;BME280;8720;48.488;9.202;2023-05-07T11:14:43;96852.34;;;29.04;36.68
17209;BME280;8720;48.488;9.202;2023-05-07T11:17:18;96860.78;;;29.09;37.09
17209;BME280;8720;48.488;9.202;2023-05-07T11:19:54;96873.56;;;29.07;38.89
17209;BME280;8720;48.488;9.202;2023-05-07T11:22:38;96874.19;;;29.01;39.52
17209;BME280;8720;48.488;9.202;2023-05-07T11:25:20;96881.63;;;28.89;40.35
17209;BME280;8720;48.488;9.202;2023-05-07T11:27:56;96899.81;;;28.60;40.22
17209;BME280;8720;48.488;9.202;2023-05-07T11:30:31;96884.94;;;28.02;40.32
17209;BME280;8720;48.488;9.202;2023-05-07T11:32:59;96889.25;;;27.28;41.77
17209;BME280;8720;48.488;9.202;2023-05-07T11:35:27;96883.50;;;26.54;43.81
17209;BME280;8720;48.488;9.202;2023-05-07T11:37:59;96883.38;;;25.86;44.45
17209;BME280;8720;48.488;9.202;2023-05-07T11:40:29;96872.66;;;25.24;47.80
17209;BME280;8720;48.488;9.202;2023-05-07T11:42:56;96862.13;;;24.80;50.01
17209;BME280;8720;48.488;9.202;2023-05-07T11:45:24;96866.56;;;24.48;52.16
17209;BME280;8720;48.488;9.202;2023-05-07T11:47:52;96863.22;;;24.23;53.24
17209;BME280;8720;48.488;9.202;2023-05-07T11:50:19;96866.41;;;24.06;53.66
17209;BME280;8720;48.488;9.202;2023-05-07T11:52:51;96867.47;;;23.93;54.40
17209;BME280;8720;48.488;9.202;2023-05-07T11:55:19;96867.22;;;23.85;54.41
17209;BME280;8720;48.488;9.202;2023-05-07T11:57:49;96873.53;;;23.84;54.99
17209;BME280;8720;48.488;9.202;2023-05-07T12:00:17;96873.44;;;23.85;55.49
17209;BME280;8720;48.488;9.202;2023-05-07T12:02:45;96875.13;;;23.86;55.08
17209;BME280;8720;48.488;9.202;2023-05-07T12:05:12;96876.94;;;23.86;55.80
17209;BME280;8720;48.488;9.202;2023-05-07T12:07:40;96872.44;;;23.86;55.98
17209;BME280;8720;48.488;9.202;2023-05-07T12:10:09;96869.91;;;23.85;55.28
17209;BME280;8720;48.488;9.202;2023-05-07T12:12:41;96859.56;;;23.80;55.52
17209;BME280;8720;48.488;9.202;2023-05-07T12:15:10;96862.34;;;23.79;56.00
17209;BME280;8720;48.488;9.202;2023-05-07T12:17:38;96856.66;;;23.83;56.53
17209;BME280;8720;48.488;9.202;2023-05-07T12:20:07;96867.81;;;23.88;56.54
17209;BME280;8720;48.488;9.202;2023-05-07T12:22:36;96858.47;;;23.94;56.99
17209;BME280;8720;48.488;9.202;2023-05-07T12:25:04;96863.00;;;24.04;57.47
17209;BME280;8720;48.488;9.202;2023-05-07T12:27:36;96873.53;;;24.17;57.75
17209;BME280;8720;48.488;9.202;2023-05-07T12:30:05;96870.97;;;24.26;57.74
17209;BME280;8720;48.488;9.202;2023-05-07T12:32:35;96879.13;;;24.36;56.90
17209;BME280;8720;48.488;9.202;2023-05-07T12:35:05;96878.88;;;24.39;56.45
17209;BME280;8720;48.488;9.202;2023-05-07T12:37:35;96894.66;;;24.42;56.45
17209;BME280;8720;48.488;9.202;2023-05-07T12:40:08;96891.03;;;24.43;56.62
17209;BME280;8720;48.488;9.202;2023-05-07T12:42:37;96903.53;;;24.43;56.92
17209;BME280;8720;48.488;9.202;2023-05-07T12:45:10;96912.44;;;24.43;56.71
17209;BME280;8720;48.488;9.202;2023-05-07T12:47:38;96912.66;;;24.40;57.12
17209;BME280;8720;48.488;9.202;2023-05-07T12:50:07;96920.81;;;24.39;57.33
17209;BME280;8720;48.488;9.202;2023-05-07T12:52:34;96931.75;;;24.35;57.44
17209;BME280;8720;48.488;9.202;2023-05-07T12:55:06;96923.97;;;24.32;57.29
17209;BME280;8720;48.488;9.202;2023-05-07T12:57:38;96928.72;;;24.29;57.83
17209;BME280;8720;48.488;9.202;2023-05-07T13:00:08;96928.13;;;24.25;57.86
17209;BME280;8720;48.488;9.202;2023-05-07T13:02:41;96926.78;;;24.20;58.77
17209;BME280;8720;48.488;9.202;2023-05-07T13:05:10;96932.50;;;24.15;58.35
17209;BME280;8720;48.488;9.202;2023-05-07T13:07:37;96933.72;;;24.11;58.72
17209;BME280;8720;48.488;9.202;2023-05-07T13:10:06;96949.16;;;24.08;58.63
17209;BME280;8720;48.488;9.202;2023-05-07T13:12:34;96967.56;;;24.00;58.20
17209;BME280;8720;48.488;9.202;2023-05-07T13:15:01;96981.16;;;23.86;57.56
17209;BME280;8720;48.488;9.202;2023-05-07T13:17:28;96990.47;;;23.69;57.10
17209;BME280;8720;48.488;9.202;2023-05-07T13:19:58;96997.31;;;23.50;57.64
17209;BME280;8720;48.488;9.202;2023-05-07T13:22:25;97014.63;;;23.33;57.56
17209;BME280;8720;48.488;9.202;2023-05-07T13:24:52;97019.34;;;23.17;57.72
17209;BME280;8720;48.488;9.202;2023-05-07T13:27:20;97024.03;;;23.02;57.96
17209;BME280;8720;48.488;9.202;2023-05-07T13:29:47;97034.09;;;22.86;58.64